createdAt,value
2022-07-31T00:00:13.609Z,19.72
2022-07-31T00:02:41.372Z,19.70
2022-07-31T00:05:07.973Z,19.66
2022-07-31T00:07:34.329Z,19.60
2022-07-31T00:10:00.662Z,19.55
2022-07-31T00:12:26.991Z,19.49
2022-07-31T00:14:53.377Z,19.46
2022-07-31T00:17:19.717Z,19.45
2022-07-31T00:19:47.460Z,19.39
2022-07-31T00:22:13.782Z,19.31
2022-07-31T00:24:40.120Z,19.27
2022-07-31T00:27:06.702Z,19.25
2022-07-31T00:29:33.353Z,19.25
2022-07-31T00:31:59.707Z,19.28
2022-07-31T00:34:26.051Z,19.29
2022-07-31T00:36:53.718Z,19.31
2022-07-31T00:39:20.464Z,19.31
2022-07-31T00:41:46.879Z,19.31
2022-07-31T00:44:13.815Z,19.32
2022-07-31T00:46:40.550Z,19.35
2022-07-31T00:49:07.453Z,19.36
2022-07-31T00:51:33.804Z,19.36
2022-07-31T00:54:01.487Z,19.36
2022-07-31T00:56:27.819Z,19.33
2022-07-31T00:58:54.158Z,19.28
2022-07-31T01:01:21.016Z,19.27
2022-07-31T01:03:47.632Z,19.25
2022-07-31T01:06:14.091Z,19.25
2022-07-31T01:08:40.436Z,19.26
2022-07-31T01:11:10.216Z,19.26
2022-07-31T01:13:39.343Z,19.27
2022-07-31T01:16:06.627Z,19.25
2022-07-31T01:18:34.688Z,19.24
2022-07-31T01:21:03.638Z,19.25
2022-07-31T01:23:54.340Z,19.24
2022-07-31T01:26:31.868Z,19.23
2022-07-31T01:29:05.750Z,19.19
2022-07-31T01:31:34.293Z,19.19
2022-07-31T01:34:03.654Z,19.17
2022-07-31T01:36:31.563Z,19.15
2022-07-31T01:38:58.001Z,19.11
2022-07-31T01:41:26.601Z,19.11
2022-07-31T01:43:54.267Z,19.10
2022-07-31T01:46:23.132Z,19.07
2022-07-31T01:48:49.875Z,19.05
2022-07-31T01:51:17.104Z,19.02
2022-07-31T01:53:45.501Z,18.99
2022-07-31T01:56:12.740Z,18.96
2022-07-31T01:58:40.995Z,18.94
2022-07-31T02:01:08.462Z,18.92
2022-07-31T02:03:43.405Z,18.88
2022-07-31T02:06:12.814Z,18.85
2022-07-31T02:08:39.547Z,18.82
2022-07-31T02:11:06.002Z,18.83
2022-07-31T02:13:35.817Z,18.82
2022-07-31T02:16:02.542Z,18.77
2022-07-31T02:18:32.418Z,18.77
2022-07-31T02:21:00.173Z,18.74
2022-07-31T02:23:26.547Z,18.74
2022-07-31T02:25:53.111Z,18.70
2022-07-31T02:28:19.435Z,18.69
2022-07-31T02:30:47.115Z,18.66
2022-07-31T02:33:14.623Z,18.63
2022-07-31T02:35:44.113Z,18.60
2022-07-31T02:38:22.402Z,18.57
2022-07-31T02:40:50.878Z,18.54
2022-07-31T02:43:17.743Z,18.53
2022-07-31T02:45:44.288Z,18.51
2022-07-31T02:48:10.748Z,18.49
2022-07-31T02:50:38.256Z,18.47
2022-07-31T02:53:04.690Z,18.41
2022-07-31T02:55:33.004Z,18.38
2022-07-31T02:57:59.352Z,18.34
2022-07-31T03:00:25.995Z,18.28
2022-07-31T03:02:53.148Z,18.22
2022-07-31T03:05:19.556Z,18.17
2022-07-31T03:07:46.102Z,18.13
2022-07-31T03:10:12.536Z,18.13
2022-07-31T03:12:40.931Z,18.10
2022-07-31T03:15:08.804Z,18.06
2022-07-31T03:17:38.397Z,18.05
2022-07-31T03:20:08.226Z,18.03
2022-07-31T03:22:34.766Z,18.04
2022-07-31T03:25:02.511Z,18.03
2022-07-31T03:27:28.863Z,18.01
2022-07-31T03:29:56.559Z,18.01
2022-07-31T03:32:22.910Z,18.01
2022-07-31T03:34:49.237Z,18.01
2022-07-31T03:37:15.558Z,18.05
2022-07-31T03:39:41.924Z,18.04
2022-07-31T03:42:18.531Z,18.06
2022-07-31T03:44:46.399Z,18.07
2022-07-31T03:47:16.429Z,18.08
2022-07-31T03:49:43.647Z,18.10
2022-07-31T03:52:12.281Z,18.11
2022-07-31T03:54:39.475Z,18.05
2022-07-31T03:57:07.858Z,18.03
2022-07-31T03:59:36.648Z,18.01
2022-07-31T04:02:18.816Z,18.01
2022-07-31T04:04:45.310Z,18.01
2022-07-31T04:07:11.662Z,18.03
2022-07-31T04:09:38.164Z,18.03
2022-07-31T04:12:04.979Z,18.05
2022-07-31T04:14:31.566Z,18.06
2022-07-31T04:16:57.890Z,18.07
2022-07-31T04:19:25.626Z,18.08
2022-07-31T04:21:51.972Z,18.09
2022-07-31T04:24:18.310Z,18.10
2022-07-31T04:26:44.643Z,18.12
2022-07-31T04:29:10.966Z,18.13
2022-07-31T04:31:37.306Z,18.14
2022-07-31T04:34:03.674Z,18.13
2022-07-31T04:36:31.687Z,18.14
2022-07-31T04:38:58.199Z,18.14
2022-07-31T04:41:24.546Z,18.16
2022-07-31T04:43:50.876Z,18.17
2022-07-31T04:46:18.035Z,18.19
2022-07-31T04:48:44.961Z,18.22
2022-07-31T04:51:16.221Z,18.26
2022-07-31T04:53:44.066Z,18.27
2022-07-31T04:56:10.392Z,18.29
2022-07-31T04:58:36.771Z,18.29
2022-07-31T05:01:03.235Z,18.32
2022-07-31T05:03:29.557Z,18.33
2022-07-31T05:05:55.917Z,18.36
2022-07-31T05:08:22.231Z,18.39
2022-07-31T05:10:49.936Z,18.42
2022-07-31T05:13:16.266Z,18.47
2022-07-31T05:15:43.086Z,18.49
2022-07-31T05:18:09.447Z,18.51
2022-07-31T05:20:35.759Z,18.54
2022-07-31T05:23:02.098Z,18.56
2022-07-31T05:25:32.959Z,18.58
2022-07-31T05:28:00.890Z,18.59
2022-07-31T05:30:29.822Z,18.61
2022-07-31T05:32:56.976Z,18.63
2022-07-31T05:35:23.327Z,18.64
2022-07-31T05:37:49.656Z,18.67
2022-07-31T05:40:16.011Z,18.68
2022-07-31T05:42:42.341Z,18.70
2022-07-31T05:45:10.759Z,18.70
2022-07-31T05:47:39.821Z,18.71
2022-07-31T05:50:07.760Z,18.71
2022-07-31T05:52:34.110Z,18.69
2022-07-31T05:55:00.448Z,18.68
2022-07-31T05:57:33.238Z,18.67
2022-07-31T06:00:00.760Z,18.68
2022-07-31T06:02:31.583Z,18.69
2022-07-31T06:04:57.894Z,18.70
2022-07-31T06:07:24.239Z,18.71
2022-07-31T06:09:50.582Z,18.73
2022-07-31T06:12:17.721Z,18.75
2022-07-31T06:14:44.032Z,18.79
2022-07-31T06:17:10.392Z,18.83
2022-07-31T06:19:38.192Z,18.86
2022-07-31T06:22:04.888Z,18.88
2022-07-31T06:24:31.423Z,18.91
2022-07-31T06:27:00.065Z,18.98
2022-07-31T06:29:41.394Z,19.02
2022-07-31T06:32:08.775Z,19.08
2022-07-31T06:34:35.145Z,19.11
2022-07-31T06:37:02.916Z,19.14
2022-07-31T06:39:55.510Z,19.19
2022-07-31T06:42:17.962Z,19.23
2022-07-31T06:44:46.256Z,19.25
2022-07-31T06:47:13.992Z,19.28
2022-07-31T06:49:42.496Z,19.31
2022-07-31T06:52:10.263Z,19.33
2022-07-31T06:54:36.612Z,19.35
2022-07-31T06:57:02.996Z,19.35
2022-07-31T06:59:40.191Z,19.36
2022-07-31T07:02:07.763Z,19.39
2022-07-31T07:05:00.012Z,19.40
2022-07-31T07:07:22.457Z,19.44
2022-07-31T07:09:48.801Z,19.47
2022-07-31T07:12:16.662Z,19.49
2022-07-31T07:14:43.455Z,19.53
2022-07-31T07:17:09.979Z,19.57
2022-07-31T07:19:39.163Z,19.61
2022-07-31T07:22:05.852Z,19.66
2022-07-31T07:24:33.846Z,19.70
2022-07-31T07:27:00.218Z,19.77
2022-07-31T07:29:26.569Z,19.85
2022-07-31T07:31:52.900Z,19.97
2022-07-31T07:34:19.244Z,20.11
2022-07-31T07:36:45.630Z,20.25
2022-07-31T07:39:11.964Z,20.37
2022-07-31T07:41:39.813Z,20.46
2022-07-31T07:44:06.189Z,20.49
2022-07-31T07:46:32.639Z,20.51
2022-07-31T07:48:59.393Z,20.58
2022-07-31T07:51:25.794Z,20.69
2022-07-31T07:53:52.303Z,20.82
2022-07-31T07:56:18.733Z,20.80
2022-07-31T07:58:46.565Z,20.87
2022-07-31T08:01:13.265Z,20.93
2022-07-31T08:03:48.689Z,20.97
2022-07-31T08:06:18.084Z,21.02
2022-07-31T08:08:44.421Z,21.02
2022-07-31T08:11:10.852Z,21.03
2022-07-31T08:13:49.360Z,21.02
2022-07-31T08:16:18.194Z,21.11
2022-07-31T08:18:44.539Z,21.21
2022-07-31T08:21:10.870Z,21.30
2022-07-31T08:23:37.481Z,21.40
2022-07-31T08:26:03.875Z,21.41
2022-07-31T08:28:31.274Z,21.47
2022-07-31T08:30:57.916Z,21.48
2022-07-31T08:33:25.599Z,21.44
2022-07-31T08:35:51.965Z,21.49
2022-07-31T08:38:18.338Z,21.54
2022-07-31T08:40:46.623Z,21.64
2022-07-31T08:45:59.996Z,21.84
2022-07-31T08:48:28.080Z,21.91
2022-07-31T08:50:54.479Z,21.99
2022-07-31T08:53:21.243Z,22.05
2022-07-31T08:55:56.622Z,22.11
2022-07-31T08:58:24.768Z,22.22
2022-07-31T09:00:51.384Z,22.30
2022-07-31T09:03:18.033Z,22.36
2022-07-31T09:05:45.802Z,22.40
2022-07-31T09:08:14.650Z,22.42
2022-07-31T09:10:47.586Z,22.48
2022-07-31T09:13:16.363Z,22.55
2022-07-31T09:15:42.720Z,22.58
2022-07-31T09:18:15.863Z,22.59
2022-07-31T09:20:52.955Z,22.56
2022-07-31T09:23:20.659Z,22.52
2022-07-31T09:25:51.103Z,22.54
2022-07-31T09:28:20.940Z,22.56
2022-07-31T09:30:56.467Z,22.60
2022-07-31T09:33:23.391Z,22.67
2022-07-31T09:35:50.328Z,22.69
2022-07-31T09:38:17.444Z,22.72
2022-07-31T09:40:57.153Z,22.76
2022-07-31T09:43:24.747Z,22.75
2022-07-31T09:45:56.783Z,22.71
2022-07-31T09:48:26.862Z,22.69
2022-07-31T09:50:55.738Z,22.70
2022-07-31T09:53:22.352Z,22.74
2022-07-31T09:55:50.819Z,22.81
2022-07-31T09:58:17.150Z,22.87
2022-07-31T10:00:43.877Z,22.88
2022-07-31T10:03:13.198Z,22.98
2022-07-31T10:05:41.492Z,23.09
2022-07-31T10:08:08.708Z,23.22
2022-07-31T10:10:35.771Z,23.40
2022-07-31T10:13:06.097Z,23.53
2022-07-31T10:15:33.029Z,23.70
2022-07-31T10:18:00.122Z,23.82
2022-07-31T10:20:26.761Z,23.88
2022-07-31T10:22:54.037Z,23.98
2022-07-31T10:25:21.135Z,24.07
2022-07-31T10:27:47.584Z,24.16
2022-07-31T10:30:15.437Z,24.27
2022-07-31T10:32:42.353Z,24.40
2022-07-31T10:35:08.996Z,24.55
2022-07-31T10:37:38.592Z,24.73
2022-07-31T10:40:08.930Z,24.81
2022-07-31T10:42:39.510Z,24.81
2022-07-31T10:45:06.948Z,24.60
2022-07-31T10:47:35.041Z,24.60
2022-07-31T10:50:01.724Z,24.41
2022-07-31T10:52:28.876Z,24.39
2022-07-31T10:54:55.628Z,24.37
2022-07-31T10:57:22.300Z,24.42
2022-07-31T10:59:48.774Z,24.54
2022-07-31T11:02:26.456Z,24.77
2022-07-31T11:04:57.516Z,24.99
2022-07-31T11:07:25.431Z,24.98
2022-07-31T11:09:51.897Z,24.90
2022-07-31T11:12:18.720Z,24.91
2022-07-31T11:14:45.223Z,24.96
2022-07-31T11:17:12.530Z,24.99
2022-07-31T11:19:43.464Z,25.02
2022-07-31T11:22:31.935Z,25.15
2022-07-31T11:24:58.063Z,25.35
2022-07-31T11:27:31.280Z,25.38
2022-07-31T11:30:07.800Z,25.36
2022-07-31T11:32:37.344Z,25.28
2022-07-31T11:35:03.910Z,25.18
2022-07-31T11:37:46.038Z,25.14
2022-07-31T11:40:19.058Z,25.11
2022-07-31T11:43:04.696Z,25.11
2022-07-31T11:45:44.951Z,25.17
2022-07-31T11:48:14.167Z,25.25
2022-07-31T11:50:42.485Z,25.29
2022-07-31T11:53:10.679Z,25.29
2022-07-31T11:55:47.541Z,25.34
2022-07-31T11:58:14.154Z,25.45
2022-07-31T12:00:45.723Z,25.59
2022-07-31T12:03:12.201Z,25.70
2022-07-31T12:05:43.421Z,25.67
2022-07-31T12:08:11.407Z,25.75
2022-07-31T12:10:38.636Z,25.84
2022-07-31T12:13:05.279Z,25.82
2022-07-31T12:15:31.661Z,25.69
2022-07-31T12:18:00.596Z,25.45
2022-07-31T12:20:35.535Z,25.43
2022-07-31T12:23:02.954Z,25.45
2022-07-31T12:25:40.340Z,25.59
2022-07-31T12:28:07.493Z,25.68
2022-07-31T12:30:33.958Z,25.75
2022-07-31T12:33:04.536Z,25.81
2022-07-31T12:35:54.829Z,25.75
2022-07-31T12:38:40.832Z,25.57
2022-07-31T12:41:09.562Z,25.50
2022-07-31T12:43:37.440Z,25.42
2022-07-31T12:46:03.787Z,25.38
2022-07-31T12:48:32.759Z,25.45
2022-07-31T12:51:01.247Z,25.41
2022-07-31T12:53:27.683Z,25.44
2022-07-31T12:55:54.036Z,25.52
2022-07-31T12:58:21.714Z,25.60
2022-07-31T13:00:48.071Z,25.70
2022-07-31T13:03:14.407Z,25.78
2022-07-31T13:05:40.973Z,25.85
2022-07-31T13:08:07.536Z,25.85
2022-07-31T13:10:34.005Z,25.87
2022-07-31T13:13:00.699Z,25.99
2022-07-31T13:15:28.427Z,26.11
2022-07-31T13:17:54.957Z,26.20
2022-07-31T13:20:21.854Z,26.35
2022-07-31T13:22:48.167Z,26.40
2022-07-31T13:25:14.529Z,26.39
2022-07-31T13:27:41.393Z,26.48
2022-07-31T13:30:08.657Z,26.44
2022-07-31T13:32:36.444Z,26.44
2022-07-31T13:35:24.001Z,26.39
2022-07-31T13:37:49.269Z,26.33
2022-07-31T13:40:15.643Z,26.19
2022-07-31T13:42:41.970Z,26.10
2022-07-31T13:45:09.034Z,26.05
2022-07-31T13:47:50.589Z,25.93
2022-07-31T13:50:17.543Z,25.81
2022-07-31T13:52:43.877Z,25.71
2022-07-31T13:55:10.193Z,25.70
2022-07-31T13:57:36.540Z,25.71
2022-07-31T14:00:03.381Z,25.78
2022-07-31T14:02:29.747Z,25.84
2022-07-31T14:04:57.506Z,25.83
2022-07-31T14:07:23.825Z,25.90
2022-07-31T14:10:10.318Z,26.07
2022-07-31T14:12:36.650Z,26.12
2022-07-31T14:15:03.201Z,26.21
2022-07-31T14:17:29.795Z,26.31
2022-07-31T14:19:57.496Z,26.36
2022-07-31T14:22:23.843Z,26.32
2022-07-31T14:24:51.328Z,26.34
2022-07-31T14:27:18.267Z,26.27
2022-07-31T14:29:44.611Z,26.28
2022-07-31T14:32:10.952Z,26.25
2022-07-31T14:34:37.289Z,26.30
2022-07-31T14:37:05.245Z,26.39
2022-07-31T14:39:31.709Z,26.45
2022-07-31T14:41:58.058Z,26.56
2022-07-31T14:44:28.637Z,26.55
2022-07-31T14:46:55.527Z,26.58
2022-07-31T14:49:21.960Z,26.49
2022-07-31T14:51:48.365Z,26.51
2022-07-31T14:54:16.285Z,26.60
2022-07-31T14:57:00.716Z,26.51
2022-07-31T14:59:27.760Z,26.27
2022-07-31T15:01:54.129Z,26.24
2022-07-31T15:04:20.460Z,26.38
2022-07-31T15:06:56.193Z,26.30
2022-07-31T15:09:34.646Z,26.10
2022-07-31T15:12:01.897Z,26.08
2022-07-31T15:14:28.578Z,25.98
2022-07-31T15:16:54.937Z,26.06
2022-07-31T15:19:21.277Z,26.27
2022-07-31T15:22:11.007Z,26.35
2022-07-31T15:24:35.300Z,26.38
2022-07-31T15:27:01.892Z,26.29
2022-07-31T15:30:04.939Z,26.16
2022-07-31T15:32:14.658Z,26.05
2022-07-31T15:34:41.003Z,26.03
2022-07-31T15:37:07.673Z,25.86
2022-07-31T15:39:36.562Z,25.74
2022-07-31T15:42:02.973Z,25.69
2022-07-31T15:44:29.300Z,25.75
2022-07-31T15:46:55.664Z,25.84
2022-07-31T15:49:22.104Z,25.94
2022-07-31T15:51:48.507Z,25.98
2022-07-31T15:54:14.953Z,25.94
2022-07-31T15:56:42.657Z,25.93
2022-07-31T15:59:08.999Z,25.88
2022-07-31T16:01:35.397Z,25.89
2022-07-31T16:04:01.852Z,25.85
2022-07-31T16:06:32.162Z,25.76
2022-07-31T16:08:59.211Z,25.53
2022-07-31T16:12:03.784Z,25.54
2022-07-31T16:14:13.223Z,25.68
2022-07-31T16:16:44.201Z,25.90
2022-07-31T16:19:12.139Z,25.98
2022-07-31T16:21:41.614Z,25.77
2022-07-31T16:24:08.030Z,25.52
2022-07-31T16:26:34.400Z,25.42
2022-07-31T16:29:00.738Z,25.46
2022-07-31T16:31:30.453Z,25.36
2022-07-31T16:33:57.215Z,25.32
2022-07-31T16:36:23.604Z,25.33
2022-07-31T16:39:10.852Z,25.18
2022-07-31T16:41:36.287Z,25.03
2022-07-31T16:44:02.839Z,24.99
2022-07-31T16:46:30.916Z,24.99
2022-07-31T16:48:57.283Z,24.99
2022-07-31T16:51:23.644Z,24.89
2022-07-31T16:54:14.642Z,24.89
2022-07-31T16:56:36.335Z,24.77
2022-07-31T16:59:03.073Z,24.59
2022-07-31T17:01:57.508Z,24.56
2022-07-31T17:04:17.203Z,24.54
2022-07-31T17:06:43.556Z,24.38
2022-07-31T17:09:16.868Z,23.78
2022-07-31T17:11:45.153Z,23.38
2022-07-31T17:14:11.491Z,22.93
2022-07-31T17:16:42.249Z,22.80
2022-07-31T17:19:11.647Z,22.80
2022-07-31T17:21:41.904Z,22.81
2022-07-31T17:24:10.358Z,22.72
2022-07-31T17:26:42.635Z,22.73
2022-07-31T17:29:08.962Z,22.75
2022-07-31T17:31:35.295Z,22.75
2022-07-31T17:34:07.322Z,22.78
2022-07-31T17:36:35.755Z,22.73
2022-07-31T17:39:02.140Z,22.84
2022-07-31T17:41:28.471Z,22.77
2022-07-31T17:43:54.881Z,22.80
2022-07-31T17:46:34.444Z,22.80
2022-07-31T17:49:04.298Z,23.13
2022-07-31T17:51:30.668Z,23.00
2022-07-31T17:53:59.544Z,23.00
2022-07-31T17:56:26.087Z,23.03
2022-07-31T17:58:52.472Z,22.47
2022-07-31T18:01:18.847Z,22.26
2022-07-31T18:03:45.236Z,22.21
2022-07-31T18:06:12.922Z,22.27
2022-07-31T18:08:39.265Z,22.20
2022-07-31T18:11:05.595Z,22.29
2022-07-31T18:13:31.936Z,22.05
2022-07-31T18:16:14.556Z,22.24
2022-07-31T18:18:40.928Z,22.12
2022-07-31T18:21:07.263Z,22.23
2022-07-31T18:23:35.042Z,22.14
2022-07-31T18:26:01.771Z,21.99
2022-07-31T18:28:28.182Z,22.13
2022-07-31T18:30:54.511Z,22.24
2022-07-31T18:33:20.823Z,22.05
2022-07-31T18:35:47.156Z,22.04
2022-07-31T18:38:13.736Z,22.04
2022-07-31T18:40:41.500Z,22.07
2022-07-31T18:43:07.823Z,22.15
2022-07-31T18:45:34.168Z,22.15
2022-07-31T18:48:00.560Z,21.86
2022-07-31T18:51:01.846Z,21.66
2022-07-31T18:53:13.474Z,21.49
2022-07-31T18:55:41.485Z,21.59
2022-07-31T18:58:07.906Z,21.45
2022-07-31T19:00:34.323Z,21.53
2022-07-31T19:03:00.655Z,21.55
2022-07-31T19:05:26.987Z,21.12
2022-07-31T19:07:53.563Z,21.21
2022-07-31T19:10:31.089Z,21.20
2022-07-31T19:12:59.216Z,21.32
2022-07-31T19:15:25.543Z,21.10
2022-07-31T19:17:51.872Z,21.37
2022-07-31T19:20:41.309Z,21.27
2022-07-31T19:23:07.753Z,20.82
2022-07-31T19:26:02.846Z,20.65
2022-07-31T19:28:27.322Z,20.55
2022-07-31T19:30:54.081Z,20.50
2022-07-31T19:33:20.430Z,20.48
2022-07-31T19:35:55.378Z,20.38
2022-07-31T19:38:25.206Z,20.38
2022-07-31T19:40:51.557Z,20.38
2022-07-31T19:43:17.883Z,20.39
2022-07-31T19:46:10.009Z,20.41
2022-07-31T19:48:34.838Z,20.40
2022-07-31T19:51:01.143Z,20.39
2022-07-31T19:53:27.480Z,20.34
2022-07-31T19:55:53.804Z,20.38
2022-07-31T19:58:20.129Z,20.37
2022-07-31T20:00:47.813Z,20.34
2022-07-31T20:03:14.412Z,20.35
2022-07-31T20:05:40.817Z,20.35
2022-07-31T20:08:07.270Z,20.34
2022-07-31T20:10:33.625Z,20.37
2022-07-31T20:12:59.960Z,20.38
2022-07-31T20:15:26.271Z,20.36
2022-07-31T20:17:53.961Z,20.38
2022-07-31T20:20:20.380Z,20.37
2022-07-31T20:22:46.721Z,20.40
2022-07-31T20:25:20.447Z,20.38
2022-07-31T20:27:47.204Z,20.45
2022-07-31T20:30:13.520Z,20.44
2022-07-31T20:32:48.322Z,20.43
2022-07-31T20:35:33.059Z,20.44
2022-07-31T20:38:03.032Z,20.44
2022-07-31T20:40:29.385Z,20.39
2022-07-31T20:42:55.771Z,20.41
2022-07-31T20:45:22.358Z,20.40
2022-07-31T20:47:48.757Z,20.42
2022-07-31T20:50:16.468Z,20.38
2022-07-31T20:52:46.851Z,20.38
2022-07-31T20:55:14.891Z,20.39
2022-07-31T20:57:41.251Z,20.41
2022-07-31T21:00:08.131Z,20.42
2022-07-31T21:02:34.495Z,20.39
2022-07-31T21:05:00.843Z,20.40
2022-07-31T21:07:28.779Z,20.42
2022-07-31T21:09:55.115Z,20.45
2022-07-31T21:12:21.484Z,20.46
2022-07-31T21:14:47.865Z,20.52
2022-07-31T21:17:14.203Z,20.51
2022-07-31T21:19:40.520Z,20.48
2022-07-31T21:22:07.330Z,20.38
2022-07-31T21:24:35.719Z,20.37
2022-07-31T21:27:02.773Z,20.32
2022-07-31T21:29:29.410Z,20.30
2022-07-31T21:31:56.092Z,20.26
2022-07-31T21:34:22.760Z,20.25
2022-07-31T21:36:49.328Z,20.25
2022-07-31T21:39:18.621Z,20.23
2022-07-31T21:41:47.465Z,20.23
2022-07-31T21:44:13.970Z,20.22
2022-07-31T21:46:48.182Z,20.20
2022-07-31T21:49:19.057Z,20.14
2022-07-31T21:51:45.628Z,20.12
2022-07-31T21:54:11.980Z,20.12
2022-07-31T21:56:38.381Z,20.08
2022-07-31T21:59:06.069Z,19.98
2022-07-31T22:01:32.478Z,19.94
2022-07-31T22:03:58.928Z,19.94
2022-07-31T22:06:26.350Z,19.93
2022-07-31T22:08:52.788Z,19.93
2022-07-31T22:11:19.271Z,19.92
2022-07-31T22:13:45.752Z,19.90
2022-07-31T22:16:13.432Z,19.87
2022-07-31T22:18:40.123Z,19.84
2022-07-31T22:21:07.733Z,19.82
2022-07-31T22:23:34.232Z,19.77
2022-07-31T22:26:00.894Z,19.74
2022-07-31T22:28:27.838Z,19.75
2022-07-31T22:30:54.608Z,19.74
2022-07-31T22:33:22.387Z,19.71
2022-07-31T22:35:58.573Z,19.70
2022-07-31T22:38:27.720Z,19.71
2022-07-31T22:40:54.118Z,19.71
2022-07-31T22:44:12.634Z,19.70
2022-07-31T22:46:07.519Z,19.65
2022-07-31T22:48:36.227Z,19.67
2022-07-31T22:51:02.679Z,19.67
2022-07-31T22:53:29.038Z,19.66
2022-07-31T22:55:55.388Z,19.67
2022-07-31T22:58:22.176Z,19.63
2022-07-31T23:00:48.939Z,19.60
2022-07-31T23:03:16.069Z,19.57
2022-07-31T23:06:13.145Z,19.59
2022-07-31T23:08:30.404Z,19.58
2022-07-31T23:10:56.756Z,19.56
2022-07-31T23:13:23.271Z,19.54
2022-07-31T23:15:49.913Z,19.53
2022-07-31T23:18:16.252Z,19.53
2022-07-31T23:20:43.932Z,19.51
2022-07-31T23:23:10.250Z,19.51
2022-07-31T23:25:36.576Z,19.51
2022-07-31T23:28:02.993Z,19.51
2022-07-31T23:30:29.341Z,19.50
2022-07-31T23:32:55.676Z,19.51
2022-07-31T23:35:22.070Z,19.52
2022-07-31T23:37:50.073Z,19.51
2022-07-31T23:40:16.498Z,19.51
2022-07-31T23:42:43.123Z,19.48
2022-07-31T23:45:11.275Z,19.49
2022-07-31T23:47:45.956Z,19.52
2022-07-31T23:50:13.426Z,19.50
2022-07-31T23:52:39.779Z,19.53
2022-07-31T23:55:07.759Z,19.56
2022-07-31T23:57:36.071Z,19.55
